Reverie TN, Arkansas
Current Conditions -  °F | °C
As of 2:50 PM on Saturday 25 Oct 2014 (Local Time) from KNQA Reporting Station
Scattered Clouds Scattered Clouds  
Wind Chill: 84°   Ceiling: Unl
Heat Index: 86°   Visibility: 10mi
Dew Point: 66°   Wind: 5mph
Humidity: 55%   Direction: 280°W
Pressure: 30.02"   Gusts: NA
Location:  35.5514°N, 90.0534°W
Report Text: KNQA 251950Z 28004KT 10SM SCT050 29/19 A3002
Loading
Personal Weather Stations






























Interactive Weather Map
Tropical Storm Tracking
New forecast layout! Learn more

10-Day Weather Forecast

Advertisements
Track Severe Weather on mobile